Terminal Aerodrome Forecast
Issued by NWS

Home | Current Version | Previous Version | Text Only | Print | Product List | Glossary On
Versions: 1 2 3 4 5 6 7 8 9 10 11 12
936
FTUS43 KSGF 202322
TAFBBG
TAF
KBBG 202322Z 2100/2124 09012G16KT P6SM BKN250
     FM211900 11012KT P6SM OVC050 PROB30 2122/2124 4SM -SHRA OVC025=

USA.gov is the U.S. government's official web portal to all federal, state and local government web resources and services.